sensor_id;sensor_type;location;lat;lon;timestamp;pressure;altitude;pressure_sealevel;temperature;humidity
66880;BME280;72009;51.392;10.234;2023-12-14T00:00:03;97058.13;;;6.01;100.00
66880;BME280;72009;51.392;10.234;2023-12-14T00:00:24;97058.44;;;5.99;100.00
66880;BME280;72009;51.392;10.234;2023-12-14T00:00:44;97058.44;;;5.99;100.00
66880;BME280;72009;51.392;10.234;2023-12-14T00:01:04;97065.50;;;6.00;100.00
66880;BME280;72009;51.392;10.234;2023-12-14T00:01:24;97064.19;;;5.98;100.00
66880;BME280;72009;51.392;10.234;2023-12-14T00:01:45;97062.25;;;5.98;100.00
66880;BME280;72009;51.392;10.234;2023-12-14T00:02:05;97067.72;;;5.98;100.00
66880;BME280;72009;51.392;10.234;2023-12-14T00:02:25;97064.19;;;5.98;100.00
66880;BME280;72009;51.392;10.234;2023-12-14T00:02:46;97066.91;;;5.98;100.00
66880;BME280;72009;51.392;10.234;2023-12-14T00:03:06;97065.28;;;5.97;100.00
66880;BME280;72009;51.392;10.234;2023-12-14T00:03:26;97070.44;;;5.98;100.00
66880;BME280;72009;51.392;10.234;2023-12-14T00:03:46;97065.28;;;5.97;100.00
66880;BME280;72009;51.392;10.234;2023-12-14T00:04:08;97061.47;;;5.98;100.00
66880;BME280;72009;51.392;10.234;2023-12-14T00:04:28;97059.03;;;5.96;100.00
66880;BME280;72009;51.392;10.234;2023-12-14T00:04:48;97066.44;;;5.96;100.00
66880;BME280;72009;51.392;10.234;2023-12-14T00:05:09;97067.22;;;5.96;100.00
66880;BME280;72009;51.392;10.234;2023-12-14T00:05:29;97057.41;;;5.95;100.00
66880;BME280;72009;51.392;10.234;2023-12-14T00:05:49;97062.88;;;5.95;100.00
66880;BME280;72009;51.392;10.234;2023-12-14T00:06:10;97067.53;;;5.95;100.00
66880;BME280;72009;51.392;10.234;2023-12-14T00:06:31;97062.06;;;5.95;100.00
66880;BME280;72009;51.392;10.234;2023-12-14T00:06:51;97056.63;;;5.95;100.00
66880;BME280;72009;51.392;10.234;2023-12-14T00:07:11;97069.16;;;5.96;100.00
66880;BME280;72009;51.392;10.234;2023-12-14T00:07:31;97062.06;;;5.95;100.00
66880;BME280;72009;51.392;10.234;2023-12-14T00:07:52;97067.53;;;5.95;100.00
66880;BME280;72009;51.392;10.234;2023-12-14T00:08:12;97070.25;;;5.95;100.00
66880;BME280;72009;51.392;10.234;2023-12-14T00:08:32;97067.53;;;5.95;100.00
66880;BME280;72009;51.392;10.234;2023-12-14T00:08:53;97062.88;;;5.95;100.00
66880;BME280;72009;51.392;10.234;2023-12-14T00:09:13;97066.72;;;5.94;100.00
66880;BME280;72009;51.392;10.234;2023-12-14T00:09:33;97070.25;;;5.95;100.00
66880;BME280;72009;51.392;10.234;2023-12-14T00:09:53;97067.84;;;5.93;100.00
66880;BME280;72009;51.392;10.234;2023-12-14T00:10:14;97069.44;;;5.94;100.00
66880;BME280;72009;51.392;10.234;2023-12-14T00:10:34;97064.28;;;5.93;100.00
66880;BME280;72009;51.392;10.234;2023-12-14T00:10:54;97065.91;;;5.94;100.00
66880;BME280;72009;51.392;10.234;2023-12-14T00:11:15;97072.16;;;5.94;100.00
66880;BME280;72009;51.392;10.234;2023-12-14T00:11:39;97065.13;;;5.93;100.00
66880;BME280;72009;51.392;10.234;2023-12-14T00:11:59;97064.28;;;5.93;100.00
66880;BME280;72009;51.392;10.234;2023-12-14T00:12:19;97069.75;;;5.93;100.00
66880;BME280;72009;51.392;10.234;2023-12-14T00:12:40;97070.25;;;5.95;100.00
66880;BME280;72009;51.392;10.234;2023-12-14T00:13:00;97063.97;;;5.94;100.00
66880;BME280;72009;51.392;10.234;2023-12-14T00:13:20;97073.00;;;5.95;100.00
66880;BME280;72009;51.392;10.234;2023-12-14T00:13:40;97072.16;;;5.94;100.00
66880;BME280;72009;51.392;10.234;2023-12-14T00:14:01;97069.44;;;5.94;100.00
66880;BME280;72009;51.392;10.234;2023-12-14T00:14:21;97066.72;;;5.94;100.00
66880;BME280;72009;51.392;10.234;2023-12-14T00:14:41;97067.53;;;5.95;100.00
66880;BME280;72009;51.392;10.234;2023-12-14T00:15:02;97070.25;;;5.95;100.00
66880;BME280;72009;51.392;10.234;2023-12-14T00:15:22;97067.53;;;5.95;100.00
66880;BME280;72009;51.392;10.234;2023-12-14T00:15:42;97066.72;;;5.94;100.00
66880;BME280;72009;51.392;10.234;2023-12-14T00:16:03;97072.16;;;5.94;100.00
66880;BME280;72009;51.392;10.234;2023-12-14T00:16:24;97064.81;;;5.95;100.00
66880;BME280;72009;51.392;10.234;2023-12-14T00:16:44;97070.25;;;5.95;100.00
66880;BME280;72009;51.392;10.234;2023-12-14T00:17:04;97074.91;;;5.94;100.00
66880;BME280;72009;51.392;10.234;2023-12-14T00:17:25;97077.63;;;5.94;100.00
66880;BME280;72009;51.392;10.234;2023-12-14T00:17:45;97069.44;;;5.94;100.00
66880;BME280;72009;51.392;10.234;2023-12-14T00:18:05;97073.00;;;5.95;100.00
66880;BME280;72009;51.392;10.234;2023-12-14T00:18:26;97076.03;;;5.93;100.00
66880;BME280;72009;51.392;10.234;2023-12-14T00:18:46;97076.03;;;5.93;100.00
66880;BME280;72009;51.392;10.234;2023-12-14T00:19:06;97076.81;;;5.94;100.00
66880;BME280;72009;51.392;10.234;2023-12-14T00:19:27;97074.91;;;5.94;100.00
66880;BME280;72009;51.392;10.234;2023-12-14T00:19:47;97068.63;;;5.94;100.00
66880;BME280;72009;51.392;10.234;2023-12-14T00:20:08;97077.34;;;5.96;100.00
66880;BME280;72009;51.392;10.234;2023-12-14T00:20:28;97074.09;;;5.94;100.00
66880;BME280;72009;51.392;10.234;2023-12-14T00:20:48;97067.84;;;5.93;100.00
66880;BME280;72009;51.392;10.234;2023-12-14T00:21:09;97076.03;;;5.93;100.00
66880;BME280;72009;51.392;10.234;2023-12-14T00:21:29;97078.44;;;5.95;100.00
66880;BME280;72009;51.392;10.234;2023-12-14T00:21:49;97070.56;;;5.93;100.00
66880;BME280;72009;51.392;10.234;2023-12-14T00:22:10;97070.25;;;5.95;100.00
66880;BME280;72009;51.392;10.234;2023-12-14T00:22:30;97077.63;;;5.94;100.00
66880;BME280;72009;51.392;10.234;2023-12-14T00:22:50;97078.75;;;5.93;100.00
66880;BME280;72009;51.392;10.234;2023-12-14T00:23:10;97084.22;;;5.93;100.00
66880;BME280;72009;51.392;10.234;2023-12-14T00:23:31;97073.31;;;5.93;100.00
66880;BME280;72009;51.392;10.234;2023-12-14T00:23:51;97074.41;;;5.92;100.00
66880;BME280;72009;51.392;10.234;2023-12-14T00:24:11;97083.38;;;5.93;100.00
66880;BME280;72009;51.392;10.234;2023-12-14T00:24:31;97082.91;;;5.91;100.00
66880;BME280;72009;51.392;10.234;2023-12-14T00:24:52;97076.63;;;5.90;100.00
66880;BME280;72009;51.392;10.234;2023-12-14T00:25:12;97082.91;;;5.91;100.00
66880;BME280;72009;51.392;10.234;2023-12-14T00:25:33;97082.91;;;5.91;100.00
66880;BME280;72009;51.392;10.234;2023-12-14T00:25:53;97078.53;;;5.90;100.00
66880;BME280;72009;51.392;10.234;2023-12-14T00:26:14;97075.81;;;5.90;100.00
66880;BME280;72009;51.392;10.234;2023-12-14T00:26:34;97085.94;;;5.89;100.00
66880;BME280;72009;51.392;10.234;2023-12-14T00:26:54;97082.09;;;5.90;100.00
66880;BME280;72009;51.392;10.234;2023-12-14T00:27:14;97084.00;;;5.90;100.00
66880;BME280;72009;51.392;10.234;2023-12-14T00:27:35;97085.94;;;5.89;100.00
66880;BME280;72009;51.392;10.234;2023-12-14T00:27:55;97076.94;;;5.89;100.00
66880;BME280;72009;51.392;10.234;2023-12-14T00:28:15;97084.31;;;5.88;100.00
66880;BME280;72009;51.392;10.234;2023-12-14T00:28:36;97084.31;;;5.88;100.00
66880;BME280;72009;51.392;10.234;2023-12-14T00:28:56;97080.47;;;5.89;100.00
66880;BME280;72009;51.392;10.234;2023-12-14T00:29:16;97086.22;;;5.88;100.00
66880;BME280;72009;51.392;10.234;2023-12-14T00:29:36;97085.44;;;5.87;100.00
66880;BME280;72009;51.392;10.234;2023-12-14T00:29:57;97086.22;;;5.88;100.00
66880;BME280;72009;51.392;10.234;2023-12-14T00:30:17;97087.34;;;5.86;100.00
66880;BME280;72009;51.392;10.234;2023-12-14T00:30:37;97091.19;;;5.85;100.00
66880;BME280;72009;51.392;10.234;2023-12-14T00:30:58;97092.31;;;5.84;100.00
66880;BME280;72009;51.392;10.234;2023-12-14T00:31:18;97092.31;;;5.84;100.00
66880;BME280;72009;51.392;10.234;2023-12-14T00:31:38;97092.31;;;5.84;100.00
66880;BME280;72009;51.392;10.234;2023-12-14T00:31:58;97095.81;;;5.85;100.00
66880;BME280;72009;51.392;10.234;2023-12-14T00:32:19;97091.50;;;5.84;100.00
66880;BME280;72009;51.392;10.234;2023-12-14T00:32:39;97095.03;;;5.84;100.00
66880;BME280;72009;51.392;10.234;2023-12-14T00:32:59;97090.69;;;5.83;100.00
66880;BME280;72009;51.392;10.234;2023-12-14T00:33:19;97092.59;;;5.83;100.00
66880;BME280;72009;51.392;10.234;2023-12-14T00:33:40;97099.69;;;5.84;100.00
66880;BME280;72009;51.392;10.234;2023-12-14T00:34:00;97094.22;;;5.84;100.00
66880;BME280;72009;51.392;10.234;2023-12-14T00:34:20;97094.22;;;5.84;100.00
66880;BME280;72009;51.392;10.234;2023-12-14T00:34:40;97092.59;;;5.83;100.00
66880;BME280;72009;51.392;10.234;2023-12-14T00:35:01;97096.13;;;5.83;100.00
66880;BME280;72009;51.392;10.234;2023-12-14T00:35:21;97091.78;;;5.82;100.00
66880;BME280;72009;51.392;10.234;2023-12-14T00:35:41;97097.22;;;5.82;100.00
66880;BME280;72009;51.392;10.234;2023-12-14T00:36:02;97091.78;;;5.82;100.00
66880;BME280;72009;51.392;10.234;2023-12-14T00:36:22;97095.63;;;5.81;100.00
66880;BME280;72009;51.392;10.234;2023-12-14T00:36:42;97095.34;;;5.83;100.00
66880;BME280;72009;51.392;10.234;2023-12-14T00:37:03;97094.50;;;5.82;100.00
66880;BME280;72009;51.392;10.234;2023-12-14T00:37:23;97092.91;;;5.81;100.00
66880;BME280;72009;51.392;10.234;2023-12-14T00:37:43;97092.59;;;5.83;100.00
66880;BME280;72009;51.392;10.234;2023-12-14T00:38:04;97086.31;;;5.82;100.00
66880;BME280;72009;51.392;10.234;2023-12-14T00:38:24;97091.78;;;5.82;100.00
66880;BME280;72009;51.392;10.234;2023-12-14T00:38:44;97097.22;;;5.82;100.00
66880;BME280;72009;51.392;10.234;2023-12-14T00:39:05;97097.22;;;5.82;100.00
66880;BME280;72009;51.392;10.234;2023-12-14T00:39:25;97096.44;;;5.82;100.00
66880;BME280;72009;51.392;10.234;2023-12-14T00:39:45;97092.91;;;5.81;100.00
66880;BME280;72009;51.392;10.234;2023-12-14T00:40:06;97095.63;;;5.81;100.00
66880;BME280;72009;51.392;10.234;2023-12-14T00:40:26;97097.22;;;5.82;100.00
66880;BME280;72009;51.392;10.234;2023-12-14T00:40:47;97097.22;;;5.82;100.00
66880;BME280;72009;51.392;10.234;2023-12-14T00:41:07;97096.44;;;5.82;100.00
66880;BME280;72009;51.392;10.234;2023-12-14T00:41:27;97099.16;;;5.82;100.00
66880;BME280;72009;51.392;10.234;2023-12-14T00:41:48;97096.44;;;5.82;100.00
66880;BME280;72009;51.392;10.234;2023-12-14T00:42:08;97102.69;;;5.82;100.00
66880;BME280;72009;51.392;10.234;2023-12-14T00:42:28;97100.28;;;5.81;100.00
66880;BME280;72009;51.392;10.234;2023-12-14T00:42:48;97094.00;;;5.80;100.00
66880;BME280;72009;51.392;10.234;2023-12-14T00:43:09;97097.53;;;5.81;100.00
66880;BME280;72009;51.392;10.234;2023-12-14T00:43:29;97099.47;;;5.80;100.00
66880;BME280;72009;51.392;10.234;2023-12-14T00:43:49;97102.19;;;5.80;100.00
66880;BME280;72009;51.392;10.234;2023-12-14T00:44:10;97105.72;;;5.81;100.00
66880;BME280;72009;51.392;10.234;2023-12-14T00:44:30;97094.81;;;5.81;100.00
66880;BME280;72009;51.392;10.234;2023-12-14T00:44:50;97106.03;;;5.79;100.00
66880;BME280;72009;51.392;10.234;2023-12-14T00:45:10;97108.47;;;5.81;100.00
66880;BME280;72009;51.392;10.234;2023-12-14T00:45:31;97112.31;;;5.80;100.00
66880;BME280;72009;51.392;10.234;2023-12-14T00:45:51;97101.72;;;5.78;100.00
66880;BME280;72009;51.392;10.234;2023-12-14T00:46:11;97104.13;;;5.80;100.00
66880;BME280;72009;51.392;10.234;2023-12-14T00:46:32;97099.78;;;5.79;100.00
66880;BME280;72009;51.392;10.234;2023-12-14T00:46:52;97101.72;;;5.78;100.00
66880;BME280;72009;51.392;10.234;2023-12-14T00:47:12;97105.22;;;5.79;100.00
66880;BME280;72009;51.392;10.234;2023-12-14T00:47:32;97103.59;;;5.78;100.00
66880;BME280;72009;51.392;10.234;2023-12-14T00:47:53;97101.72;;;5.78;100.00
66880;BME280;72009;51.392;10.234;2023-12-14T00:48:13;97105.53;;;5.77;100.00
66880;BME280;72009;51.392;10.234;2023-12-14T00:48:33;97108.56;;;5.76;100.00
66880;BME280;72009;51.392;10.234;2023-12-14T00:48:53;97104.75;;;5.77;100.00
66880;BME280;72009;51.392;10.234;2023-12-14T00:49:14;97103.91;;;5.76;100.00
66880;BME280;72009;51.392;10.234;2023-12-14T00:49:34;97107.47;;;5.77;100.00
66880;BME280;72009;51.392;10.234;2023-12-14T00:49:54;97107.47;;;5.77;100.00
66880;BME280;72009;51.392;10.234;2023-12-14T00:50:15;97107.78;;;5.75;100.00
66880;BME280;72009;51.392;10.234;2023-12-14T00:50:35;97108.56;;;5.76;100.00
66880;BME280;72009;51.392;10.234;2023-12-14T00:50:55;97113.22;;;5.75;100.00
66880;BME280;72009;51.392;10.234;2023-12-14T00:51:15;97108.06;;;5.74;100.00
66880;BME280;72009;51.392;10.234;2023-12-14T00:51:36;97111.59;;;5.74;100.00
66880;BME280;72009;51.392;10.234;2023-12-14T00:51:56;97117.06;;;5.74;100.00
66880;BME280;72009;51.392;10.234;2023-12-14T00:52:16;97108.06;;;5.74;100.00
66880;BME280;72009;51.392;10.234;2023-12-14T00:52:37;97109.97;;;5.73;100.00
66880;BME280;72009;51.392;10.234;2023-12-14T00:52:57;97109.97;;;5.73;100.00
66880;BME280;72009;51.392;10.234;2023-12-14T00:53:17;97120.88;;;5.73;100.00
66880;BME280;72009;51.392;10.234;2023-12-14T00:53:38;97111.91;;;5.73;100.00
66880;BME280;72009;51.392;10.234;2023-12-14T00:53:58;97120.88;;;5.73;100.00
66880;BME280;72009;51.392;10.234;2023-12-14T00:54:18;97120.09;;;5.73;100.00
66880;BME280;72009;51.392;10.234;2023-12-14T00:54:38;97117.38;;;5.73;100.00
66880;BME280;72009;51.392;10.234;2023-12-14T00:54:59;97122.81;;;5.73;100.00
66880;BME280;72009;51.392;10.234;2023-12-14T00:55:19;97116.56;;;5.72;100.00
66880;BME280;72009;51.392;10.234;2023-12-14T00:55:39;97117.66;;;5.71;100.00
66880;BME280;72009;51.392;10.234;2023-12-14T00:56:00;97112.22;;;5.71;100.00
66880;BME280;72009;51.392;10.234;2023-12-14T00:56:20;97116.84;;;5.71;100.00
66880;BME280;72009;51.392;10.234;2023-12-14T00:56:40;97118.78;;;5.70;100.00
66880;BME280;72009;51.392;10.234;2023-12-14T00:57:00;97118.78;;;5.70;100.00
66880;BME280;72009;51.392;10.234;2023-12-14T00:57:21;97116.03;;;5.70;100.00
66880;BME280;72009;51.392;10.234;2023-12-14T00:57:41;97123.44;;;5.70;100.00
66880;BME280;72009;51.392;10.234;2023-12-14T00:58:01;97126.16;;;5.70;100.00
66880;BME280;72009;51.392;10.234;2023-12-14T00:58:22;97124.53;;;5.68;100.00
66880;BME280;72009;51.392;10.234;2023-12-14T00:58:42;97124.53;;;5.68;100.00
66880;BME280;72009;51.392;10.234;2023-12-14T00:59:02;97119.06;;;5.68;100.00
66880;BME280;72009;51.392;10.234;2023-12-14T00:59:22;97123.72;;;5.68;100.00
66880;BME280;72009;51.392;10.234;2023-12-14T00:59:43;97123.72;;;5.68;100.00
66880;BME280;72009;51.392;10.234;2023-12-14T01:00:03;97126.47;;;5.68;100.00
66880;BME280;72009;51.392;10.234;2023-12-14T01:00:24;97121.00;;;5.68;100.00
66880;BME280;72009;51.392;10.234;2023-12-14T01:00:44;97128.34;;;5.67;100.00
66880;BME280;72009;51.392;10.234;2023-12-14T01:01:05;97120.47;;;5.66;100.00
66880;BME280;72009;51.392;10.234;2023-12-14T01:01:25;97116.66;;;5.67;100.00
66880;BME280;72009;51.392;10.234;2023-12-14T01:01:45;97124.81;;;5.67;100.00
66880;BME280;72009;51.392;10.234;2023-12-14T01:02:06;97122.91;;;5.67;100.00
66880;BME280;72009;51.392;10.234;2023-12-14T01:02:26;97130.28;;;5.67;100.00
66880;BME280;72009;51.392;10.234;2023-12-14T01:02:46;97129.19;;;5.68;100.00
66880;BME280;72009;51.392;10.234;2023-12-14T01:03:07;97124.03;;;5.66;100.00
66880;BME280;72009;51.392;10.234;2023-12-14T01:03:27;97125.94;;;5.66;100.00
66880;BME280;72009;51.392;10.234;2023-12-14T01:03:47;97127.84;;;5.65;100.00
66880;BME280;72009;51.392;10.234;2023-12-14T01:04:08;97127.06;;;5.65;100.00
66880;BME280;72009;51.392;10.234;2023-12-14T01:04:28;97125.44;;;5.64;100.00
66880;BME280;72009;51.392;10.234;2023-12-14T01:04:48;97140.69;;;5.65;100.00
66880;BME280;72009;51.392;10.234;2023-12-14T01:05:08;97129.78;;;5.65;100.00
66880;BME280;72009;51.392;10.234;2023-12-14T01:05:29;97128.16;;;5.64;100.00
66880;BME280;72009;51.392;10.234;2023-12-14T01:05:49;97133.91;;;5.62;100.00
66880;BME280;72009;51.392;10.234;2023-12-14T01:06:09;97133.63;;;5.64;100.00
66880;BME280;72009;51.392;10.234;2023-12-14T01:06:30;97136.66;;;5.62;100.00
66880;BME280;72009;51.392;10.234;2023-12-14T01:06:50;97140.19;;;5.63;100.00
66880;BME280;72009;51.392;10.234;2023-12-14T01:07:10;97137.44;;;5.63;100.00
66880;BME280;72009;51.392;10.234;2023-12-14T01:07:30;97130.41;;;5.62;100.00
66880;BME280;72009;51.392;10.234;2023-12-14T01:07:51;97135.84;;;5.62;100.00
66880;BME280;72009;51.392;10.234;2023-12-14T01:08:11;97135.84;;;5.62;100.00
66880;BME280;72009;51.392;10.234;2023-12-14T01:08:31;97142.91;;;5.63;100.00
66880;BME280;72009;51.392;10.234;2023-12-14T01:08:52;97137.75;;;5.61;100.00
66880;BME280;72009;51.392;10.234;2023-12-14T01:09:12;97134.22;;;5.61;100.00
66880;BME280;72009;51.392;10.234;2023-12-14T01:09:32;97135.03;;;5.61;100.00
66880;BME280;72009;51.392;10.234;2023-12-14T01:09:52;97129.06;;;5.59;100.00
66880;BME280;72009;51.392;10.234;2023-12-14T01:10:13;97139.97;;;5.59;100.00
66880;BME280;72009;51.392;10.234;2023-12-14T01:10:33;97140.78;;;5.60;100.00
66880;BME280;72009;51.392;10.234;2023-12-14T01:10:53;97139.97;;;5.59;100.00
66880;BME280;72009;51.392;10.234;2023-12-14T01:11:14;97141.09;;;5.58;100.00
66880;BME280;72009;51.392;10.234;2023-12-14T01:11:34;97135.63;;;5.58;100.00
66880;BME280;72009;51.392;10.234;2023-12-14T01:11:54;97133.72;;;5.59;100.00
66880;BME280;72009;51.392;10.234;2023-12-14T01:12:15;97136.16;;;5.60;100.00
66880;BME280;72009;51.392;10.234;2023-12-14T01:12:35;97141.91;;;5.59;100.00
66880;BME280;72009;51.392;10.234;2023-12-14T01:12:55;97144.63;;;5.59;100.00
66880;BME280;72009;51.392;10.234;2023-12-14T01:13:15;97145.44;;;5.59;100.00
66880;BME280;72009;51.392;10.234;2023-12-14T01:13:36;97145.44;;;5.59;100.00
66880;BME280;72009;51.392;10.234;2023-12-14T01:13:56;97146.25;;;5.60;100.00
66880;BME280;72009;51.392;10.234;2023-12-14T01:14:16;97141.91;;;5.59;100.00
66880;BME280;72009;51.392;10.234;2023-12-14T01:14:37;97140.78;;;5.60;100.00
66880;BME280;72009;51.392;10.234;2023-12-14T01:14:57;97147.06;;;5.60;100.00
66880;BME280;72009;51.392;10.234;2023-12-14T01:15:17;97144.63;;;5.59;100.00
66880;BME280;72009;51.392;10.234;2023-12-14T01:15:37;97149.25;;;5.58;100.00
66880;BME280;72009;51.392;10.234;2023-12-14T01:15:58;97143.81;;;5.58;100.00
66880;BME280;72009;51.392;10.234;2023-12-14T01:16:18;97147.38;;;5.59;100.00
66880;BME280;72009;51.392;10.234;2023-12-14T01:16:38;97154.72;;;5.58;100.00
66880;BME280;72009;51.392;10.234;2023-12-14T01:16:59;97146.53;;;5.58;100.00
66880;BME280;72009;51.392;10.234;2023-12-14T01:17:19;97148.16;;;5.59;100.00
66880;BME280;72009;51.392;10.234;2023-12-14T01:17:39;97154.41;;;5.60;100.00
66880;BME280;72009;51.392;10.234;2023-12-14T01:18:00;97159.38;;;5.58;100.00
66880;BME280;72009;51.392;10.234;2023-12-14T01:18:20;97155.56;;;5.59;100.00
66880;BME280;72009;51.392;10.234;2023-12-14T01:18:40;97157.44;;;5.58;100.00
66880;BME280;72009;51.392;10.234;2023-12-14T01:19:00;97159.88;;;5.60;100.00
66880;BME280;72009;51.392;10.234;2023-12-14T01:19:21;97163.44;;;5.60;100.00
66880;BME280;72009;51.392;10.234;2023-12-14T01:19:41;97158.28;;;5.59;100.00
66880;BME280;72009;51.392;10.234;2023-12-14T01:20:06;97164.53;;;5.59;100.00
66880;BME280;72009;51.392;10.234;2023-12-14T01:20:27;97164.53;;;5.59;100.00
66880;BME280;72009;51.392;10.234;2023-12-14T01:20:47;97173.50;;;5.60;100.00
66880;BME280;72009;51.392;10.234;2023-12-14T01:21:07;97170.00;;;5.59;100.00
66880;BME280;72009;51.392;10.234;2023-12-14T01:21:27;97169.19;;;5.59;100.00
66880;BME280;72009;51.392;10.234;2023-12-14T01:21:48;97170.00;;;5.59;100.00
66880;BME280;72009;51.392;10.234;2023-12-14T01:22:08;97166.16;;;5.60;100.00
66880;BME280;72009;51.392;10.234;2023-12-14T01:22:28;97181.69;;;5.60;100.00
66880;BME280;72009;51.392;10.234;2023-12-14T01:22:49;97173.50;;;5.60;100.00
66880;BME280;72009;51.392;10.234;2023-12-14T01:23:09;97171.91;;;5.59;100.00
66880;BME280;72009;51.392;10.234;2023-12-14T01:23:29;97171.63;;;5.60;100.00
66880;BME280;72009;51.392;10.234;2023-12-14T01:23:49;97182.53;;;5.60;100.00
66880;BME280;72009;51.392;10.234;2023-12-14T01:24:10;97178.16;;;5.59;100.00
66880;BME280;72009;51.392;10.234;2023-12-14T01:24:30;97173.50;;;5.60;100.00
66880;BME280;72009;51.392;10.234;2023-12-14T01:24:50;97184.13;;;5.61;100.00
66880;BME280;72009;51.392;10.234;2023-12-14T01:25:11;97180.59;;;5.61;100.00
66880;BME280;72009;51.392;10.234;2023-12-14T01:25:31;97181.69;;;5.60;100.00
66880;BME280;72009;51.392;10.234;2023-12-14T01:25:51;97181.69;;;5.60;100.00
66880;BME280;72009;51.392;10.234;2023-12-14T01:26:12;97191.50;;;5.61;100.00
66880;BME280;72009;51.392;10.234;2023-12-14T01:26:32;97181.69;;;5.60;100.00
66880;BME280;72009;51.392;10.234;2023-12-14T01:26:52;97183.63;;;5.59;100.00
66880;BME280;72009;51.392;10.234;2023-12-14T01:27:12;97181.69;;;5.60;100.00
66880;BME280;72009;51.392;10.234;2023-12-14T01:27:33;97182.53;;;5.60;100.00
66880;BME280;72009;51.392;10.234;2023-12-14T01:27:53;97187.97;;;5.60;100.00
66880;BME280;72009;51.392;10.234;2023-12-14T01:28:13;97186.06;;;5.61;100.00
66880;BME280;72009;51.392;10.234;2023-12-14T01:28:33;97188.78;;;5.61;100.00
66880;BME280;72009;51.392;10.234;2023-12-14T01:28:54;97185.25;;;5.60;100.00
66880;BME280;72009;51.392;10.234;2023-12-14T01:29:14;97184.44;;;5.60;100.00
66880;BME280;72009;51.392;10.234;2023-12-14T01:29:34;97182.53;;;5.60;100.00
66880;BME280;72009;51.392;10.234;2023-12-14T01:29:55;97184.44;;;5.60;100.00
66880;BME280;72009;51.392;10.234;2023-12-14T01:30:15;97189.09;;;5.59;100.00
66880;BME280;72009;51.392;10.234;2023-12-14T01:30:35;97184.44;;;5.60;100.00
66880;BME280;72009;51.392;10.234;2023-12-14T01:30:56;97189.09;;;5.59;100.00
66880;BME280;72009;51.392;10.234;2023-12-14T01:31:16;97182.53;;;5.60;100.00
66880;BME280;72009;51.392;10.234;2023-12-14T01:31:36;97190.72;;;5.60;100.00
66880;BME280;72009;51.392;10.234;2023-12-14T01:31:56;97186.34;;;5.59;100.00
66880;BME280;72009;51.392;10.234;2023-12-14T01:32:17;97187.97;;;5.60;100.00
66880;BME280;72009;51.392;10.234;2023-12-14T01:32:37;97189.88;;;5.60;100.00
66880;BME280;72009;51.392;10.234;2023-12-14T01:32:57;97189.09;;;5.59;100.00
66880;BME280;72009;51.392;10.234;2023-12-14T01:33:17;97188.28;;;5.59;100.00
66880;BME280;72009;51.392;10.234;2023-12-14T01:33:38;97182.81;;;5.59;100.00
66880;BME280;72009;51.392;10.234;2023-12-14T01:33:58;97184.72;;;5.58;100.00
66880;BME280;72009;51.392;10.234;2023-12-14T01:34:18;97191.00;;;5.59;100.00
66880;BME280;72009;51.392;10.234;2023-12-14T01:34:39;97184.72;;;5.58;100.00
66880;BME280;72009;51.392;10.234;2023-12-14T01:34:59;97189.38;;;5.58;100.00
66880;BME280;72009;51.392;10.234;2023-12-14T01:35:19;97186.66;;;5.58;100.00
66880;BME280;72009;51.392;10.234;2023-12-14T01:35:40;97188.56;;;5.57;100.00
66880;BME280;72009;51.392;10.234;2023-12-14T01:36:00;97189.38;;;5.58;100.00
66880;BME280;72009;51.392;10.234;2023-12-14T01:36:24;97185.56;;;5.59;100.00
66880;BME280;72009;51.392;10.234;2023-12-14T01:36:45;97190.19;;;5.58;100.00
66880;BME280;72009;51.392;10.234;2023-12-14T01:37:05;97185.56;;;5.59;100.00
66880;BME280;72009;51.392;10.234;2023-12-14T01:37:25;97189.09;;;5.59;100.00
66880;BME280;72009;51.392;10.234;2023-12-14T01:37:46;97188.28;;;5.59;100.00
66880;BME280;72009;51.392;10.234;2023-12-14T01:38:06;97194.84;;;5.58;100.00
66880;BME280;72009;51.392;10.234;2023-12-14T01:38:26;97196.47;;;5.59;100.00
66880;BME280;72009;51.392;10.234;2023-12-14T01:38:47;97193.75;;;5.59;100.00
66880;BME280;72009;51.392;10.234;2023-12-14T01:39:08;97188.28;;;5.59;100.00
66880;BME280;72009;51.392;10.234;2023-12-14T01:39:28;97196.47;;;5.59;100.00
66880;BME280;72009;51.392;10.234;2023-12-14T01:39:48;97195.34;;;5.60;100.00
66880;BME280;72009;51.392;10.234;2023-12-14T01:40:09;97191.50;;;5.61;100.00
66880;BME280;72009;51.392;10.234;2023-12-14T01:40:29;97193.44;;;5.60;100.00
66880;BME280;72009;51.392;10.234;2023-12-14T01:40:49;97194.25;;;5.61;100.00
66880;BME280;72009;51.392;10.234;2023-12-14T01:41:10;97195.88;;;5.62;100.00
66880;BME280;72009;51.392;10.234;2023-12-14T01:41:30;97199.41;;;5.62;100.00
66880;BME280;72009;51.392;10.234;2023-12-14T01:41:50;97200.19;;;5.63;100.00
66880;BME280;72009;51.392;10.234;2023-12-14T01:42:10;97200.19;;;5.63;100.00
66880;BME280;72009;51.392;10.234;2023-12-14T01:42:31;97196.66;;;5.62;100.00
66880;BME280;72009;51.392;10.234;2023-12-14T01:42:51;97194.75;;;5.63;100.00
66880;BME280;72009;51.392;10.234;2023-12-14T01:43:11;97199.09;;;5.64;100.00
66880;BME280;72009;51.392;10.234;2023-12-14T01:43:32;97200.72;;;5.65;100.00
66880;BME280;72009;51.392;10.234;2023-12-14T01:43:52;97198.78;;;5.65;100.00
66880;BME280;72009;51.392;10.234;2023-12-14T01:44:12;97200.72;;;5.65;100.00
66880;BME280;72009;51.392;10.234;2023-12-14T01:44:33;97201.53;;;5.65;100.00
66880;BME280;72009;51.392;10.234;2023-12-14T01:44:53;97201.53;;;5.65;100.00
66880;BME280;72009;51.392;10.234;2023-12-14T01:45:13;97198.00;;;5.65;100.00
66880;BME280;72009;51.392;10.234;2023-12-14T01:45:34;97202.31;;;5.66;100.00
66880;BME280;72009;51.392;10.234;2023-12-14T01:45:54;97208.91;;;5.65;100.00
66880;BME280;72009;51.392;10.234;2023-12-14T01:46:14;97205.03;;;5.66;100.00